Time;durP1;ratioP1;P1;durP2;ratioP2;P2;SDS_P1;SDS_P2;PMS_P1;PMS_P2;Temp;Humidity;BMP_temperature;BMP_pressure;BME280_temperature;BME280_humidity;BME280_pressure;Samples;Min_cycle;Max_cycle;Signal;HPM_P1;HPM_P2
2023/06/22 08:57:26;;;;;;;22.63;15.38;;;;;;;20.80;100.00;101442.66;5069470;28;20931;-71
2023/06/22 08:59:52;;;;;;;19.65;14.80;;;;;;;20.78;100.00;101436.59;5070083;28;20036;-72
2023/06/22 09:02:19;;;;;;;17.98;14.23;;;;;;;20.80;100.00;101425.34;5067198;28;20103;-72
2023/06/22 09:04:45;;;;;;;18.20;14.48;;;;;;;20.84;100.00;101429.19;5085401;28;20025;-72
2023/06/22 09:07:11;;;;;;;16.75;13.13;;;;;;;20.86;100.00;101416.78;5068228;28;20028;-72
2023/06/22 09:09:37;;;;;;;15.68;12.80;;;;;;;20.86;100.00;101422.31;5069275;28;20020;-72
2023/06/22 09:12:05;;;;;;;17.48;12.85;;;;;;;20.89;100.00;101423.63;5069698;28;20017;-72
2023/06/22 09:14:30;;;;;;;17.05;12.10;;;;;;;20.94;100.00;101411.78;5069125;28;20023;-72
2023/06/22 09:16:55;;;;;;;16.50;12.68;;;;;;;20.97;100.00;101416.72;5068215;28;20100;-72
2023/06/22 09:19:21;;;;;;;15.60;12.18;;;;;;;20.99;100.00;101415.34;5067806;28;20020;-72
2023/06/22 09:21:46;;;;;;;13.50;11.20;;;;;;;21.08;100.00;101417.53;5069208;28;20572;-72
2023/06/22 09:24:11;;;;;;;16.73;11.95;;;;;;;21.12;100.00;101413.94;5068147;28;20025;-72
2023/06/22 09:26:37;;;;;;;13.38;10.95;;;;;;;21.16;100.00;101414.19;5067518;28;20013;-72
2023/06/22 09:29:05;;;;;;;14.70;11.07;;;;;;;21.21;100.00;101417.75;5067848;28;20021;-72
2023/06/22 09:31:31;;;;;;;14.65;10.68;;;;;;;21.27;100.00;101418.50;5069098;28;20020;-72
2023/06/22 09:33:56;;;;;;;15.48;10.52;;;;;;;21.31;100.00;101419.59;5068966;28;20024;-72
2023/06/22 09:36:21;;;;;;;17.25;11.02;;;;;;;21.36;100.00;101425.09;5067695;28;20074;-72
2023/06/22 09:38:48;;;;;;;13.68;10.10;;;;;;;21.41;100.00;101433.31;5068053;28;20406;-72
2023/06/22 09:41:14;;;;;;;12.73;9.95;;;;;;;21.45;100.00;101417.03;5069183;28;20059;-72
2023/06/22 09:43:39;;;;;;;13.73;10.40;;;;;;;21.49;100.00;101417.31;5067202;28;20017;-72
2023/06/22 09:46:05;;;;;;;14.95;10.10;;;;;;;21.52;100.00;101412.06;5068698;28;20040;-72
2023/06/22 09:48:31;;;;;;;17.70;9.95;;;;;;;21.56;100.00;101409.59;5067394;28;20035;-72
2023/06/22 09:50:56;;;;;;;12.95;9.35;;;;;;;21.58;100.00;101404.59;5068621;28;20107;-72
2023/06/22 09:53:21;;;;;;;10.68;9.52;;;;;;;21.62;100.00;101405.69;5068671;28;20028;-72
2023/06/22 09:55:47;;;;;;;11.50;9.60;;;;;;;21.66;100.00;101405.94;5068476;28;20041;-72
2023/06/22 09:58:12;;;;;;;12.77;9.35;;;;;;;21.68;100.00;101410.06;5067494;28;20025;-72
2023/06/22 10:00:38;;;;;;;10.88;9.00;;;;;;;21.69;100.00;101411.69;5064570;28;20022;-72
2023/06/22 10:03:03;;;;;;;12.98;9.40;;;;;;;21.72;100.00;101411.09;5067473;28;20020;-72
2023/06/22 10:05:28;;;;;;;12.40;9.10;;;;;;;21.74;100.00;101408.06;5068386;28;20028;-72
2023/06/22 10:07:54;;;;;;;13.68;8.40;;;;;;;21.74;100.00;101402.56;5058654;28;20028;-73
2023/06/22 10:10:19;;;;;;;13.57;9.23;;;;;;;21.80;100.00;101411.59;5054079;28;20025;-72
2023/06/22 10:12:55;;;;;;;9.88;8.73;;;;;;;21.79;100.00;101401.72;5055057;28;20028;-72
2023/06/22 10:15:21;;;;;;;11.50;9.65;;;;;;;21.82;100.00;101414.91;5054799;28;20021;-72
2023/06/22 10:17:46;;;;;;;14.85;10.00;;;;;;;21.81;100.00;101405.00;5054952;28;20024;-72
2023/06/22 10:20:12;;;;;;;15.95;10.18;;;;;;;21.84;99.99;101408.00;5054885;28;20020;-72
2023/06/22 10:22:41;;;;;;;13.23;10.05;;;;;;;21.86;99.12;101413.22;5053458;28;20021;-72
2023/06/22 10:25:07;;;;;;;13.02;9.57;;;;;;;21.85;95.32;101408.81;5054880;28;20052;-72
2023/06/22 10:27:33;;;;;;;12.20;9.95;;;;;;;21.83;100.00;101411.88;5054488;28;20021;-72
2023/06/22 10:29:59;;;;;;;10.32;9.15;;;;;;;21.82;100.00;101417.66;5053714;28;20023;-72
2023/06/22 10:32:24;;;;;;;11.38;9.88;;;;;;;21.80;100.00;101420.72;5054453;28;20108;-72
2023/06/22 10:34:49;;;;;;;16.10;9.60;;;;;;;21.79;100.00;101421.00;5054683;28;20020;-72
2023/06/22 10:37:15;;;;;;;12.23;9.85;;;;;;;21.74;100.00;101424.59;5054585;28;20017;-72
2023/06/22 10:39:40;;;;;;;14.85;9.48;;;;;;;21.68;100.00;101422.97;5053266;28;20024;-73
2023/06/22 10:42:06;;;;;;;9.95;8.70;;;;;;;21.64;100.00;101431.00;5053393;28;20037;-72
2023/06/22 10:44:31;;;;;;;12.48;9.82;;;;;;;21.60;100.00;101440.94;5052929;28;20071;-72
2023/06/22 10:46:59;;;;;;;12.65;10.82;;;;;;;21.56;100.00;101440.69;5054952;28;20016;-73
2023/06/22 10:49:24;;;;;;;13.57;11.20;;;;;;;21.57;100.00;101449.78;5052969;28;20035;-73
2023/06/22 10:51:50;;;;;;;15.18;11.73;;;;;;;21.49;100.00;101450.34;5054281;28;20427;-72
2023/06/22 10:54:18;;;;;;;13.73;11.77;;;;;;;21.43;100.00;101450.38;5054192;28;20453;-73
2023/06/22 10:56:43;;;;;;;13.52;11.98;;;;;;;21.37;100.00;101454.25;5052727;28;20045;-73
2023/06/22 10:59:08;;;;;;;13.73;11.88;;;;;;;21.31;100.00;101447.13;5054386;28;20052;-72
2023/06/22 11:01:34;;;;;;;14.30;12.20;;;;;;;21.19;100.00;101446.63;5050270;28;20040;-72
2023/06/22 11:03:59;;;;;;;15.57;12.27;;;;;;;21.14;100.00;101447.50;5054688;28;20035;-73
2023/06/22 11:06:25;;;;;;;16.38;13.63;;;;;;;21.11;100.00;101441.75;5052902;28;20028;-72
2023/06/22 11:08:50;;;;;;;17.42;13.90;;;;;;;21.00;100.00;101450.03;5054575;28;20048;-72
2023/06/22 11:11:17;;;;;;;16.08;13.38;;;;;;;21.00;100.00;101450.03;5054238;28;20023;-72
2023/06/22 11:13:43;;;;;;;17.67;13.98;;;;;;;20.94;100.00;101445.66;5053652;28;20021;-72
2023/06/22 11:16:09;;;;;;;15.45;13.90;;;;;;;20.87;100.00;101447.88;5052711;28;20060;-72
2023/06/22 11:18:35;;;;;;;16.08;14.48;;;;;;;20.77;100.00;101456.16;5052841;28;20368;-72
2023/06/22 11:21:00;;;;;;;15.63;14.00;;;;;;;20.75;100.00;101445.44;5053726;28;20021;-72
2023/06/22 11:23:27;;;;;;;15.95;14.25;;;;;;;20.70;100.00;101449.00;5053501;28;20464;-72
2023/06/22 11:25:52;;;;;;;16.25;14.55;;;;;;;20.60;100.00;101448.19;5052666;28;20017;-72
2023/06/22 11:28:18;;;;;;;17.50;14.85;;;;;;;20.58;100.00;101453.97;5053539;28;20021;-71
2023/06/22 11:30:43;;;;;;;19.42;15.77;;;;;;;20.51;100.00;101451.47;5053692;28;20017;-71
2023/06/22 11:33:08;;;;;;;18.25;15.43;;;;;;;20.42;100.00;101455.09;5053860;28;20021;-72
2023/06/22 11:35:34;;;;;;;18.92;16.05;;;;;;;20.35;100.00;101456.19;5051858;28;20033;-72
2023/06/22 11:37:59;;;;;;;23.00;16.48;;;;;;;20.35;100.00;101461.69;5052204;28;20494;-72
2023/06/22 11:40:24;;;;;;;18.80;14.48;;;;;;;20.33;100.00;101452.88;5052104;28;20035;-72
2023/06/22 11:42:50;;;;;;;22.00;17.20;;;;;;;20.35;100.00;101460.84;5053449;28;20368;-71
2023/06/22 11:45:17;;;;;;;18.48;16.45;;;;;;;20.36;100.00;101466.06;5053532;28;20139;-72
2023/06/22 11:47:42;;;;;;;20.17;16.35;;;;;;;20.16;100.00;101464.16;5052170;28;20440;-74
2023/06/22 11:50:08;;;;;;;21.13;16.60;;;;;;;20.08;100.00;101437.25;5053483;28;20023;-76
2023/06/22 11:52:35;;;;;;;20.30;16.63;;;;;;;19.98;100.00;101418.81;5053215;28;20021;-76
2023/06/22 11:55:03;;;;;;;19.40;16.15;;;;;;;19.83;100.00;101405.09;5051563;28;20364;-73
2023/06/22 11:57:28;;;;;;;19.38;17.27;;;;;;;19.66;100.00;101397.09;5052877;28;20024;-74
2023/06/22 11:59:54;;;;;;;21.15;18.25;;;;;;;19.62;100.00;101390.50;5053059;28;20099;-71
2023/06/22 12:02:19;;;;;;;22.52;17.63;;;;;;;19.57;100.00;101383.06;5049200;28;20027;-71
2023/06/22 12:04:44;;;;;;;24.17;19.30;;;;;;;19.57;100.00;101391.31;5053263;28;20418;-73
2023/06/22 12:07:10;;;;;;;26.45;18.55;;;;;;;19.58;100.00;101382.00;5051862;28;20511;-74
2023/06/22 12:09:35;;;;;;;23.67;18.67;;;;;;;19.50;100.00;101389.94;5052930;28;20025;-74
2023/06/22 12:12:00;;;;;;;21.40;18.38;;;;;;;19.46;100.00;101384.13;5053400;28;20033;-72
2023/06/22 12:14:26;;;;;;;19.65;17.48;;;;;;;19.43;100.00;101377.31;5051734;28;20491;-74
2023/06/22 12:16:51;;;;;;;19.52;17.42;;;;;;;19.36;100.00;101373.16;5052517;28;20025;-73
2023/06/22 12:19:17;;;;;;;19.58;17.58;;;;;;;19.36;100.00;101373.16;5052667;28;20463;-73
2023/06/22 12:21:45;;;;;;;19.58;17.50;;;;;;;19.36;100.00;101368.50;5051136;28;20027;-79
2023/06/22 12:24:10;;;;;;;21.45;18.40;;;;;;;19.34;100.00;101361.63;5051563;28;20044;-77
2023/06/22 12:26:36;;;;;;;23.40;17.67;;;;;;;19.32;100.00;101363.81;5051242;28;20381;-77
2023/06/22 12:29:01;;;;;;;19.25;17.27;;;;;;;19.29;100.00;101374.25;5051612;28;20356;-76
2023/06/22 12:31:26;;;;;;;22.13;18.30;;;;;;;19.28;100.00;101378.09;5051268;28;20021;-75
2023/06/22 12:33:52;;;;;;;23.92;18.27;;;;;;;19.39;100.00;101383.59;5051211;28;20021;-73
2023/06/22 12:36:17;;;;;;;20.70;17.80;;;;;;;19.44;100.00;101381.66;5051298;28;20025;-75
2023/06/22 12:38:42;;;;;;;18.65;16.73;;;;;;;19.41;100.00;101384.16;5052185;28;20047;-74
2023/06/22 12:41:08;;;;;;;18.75;16.17;;;;;;;19.32;100.00;101383.84;5051352;28;20116;-75
2023/06/22 12:43:33;;;;;;;21.42;17.58;;;;;;;19.26;100.00;101380.28;5051276;28;20116;-75
2023/06/22 12:45:58;;;;;;;18.42;16.48;;;;;;;19.20;100.00;101375.03;5051251;28;20013;-73
2023/06/22 12:48:26;;;;;;;19.17;16.38;;;;;;;19.09;100.00;101372.25;5052565;28;20024;-72
2023/06/22 12:50:51;;;;;;;16.88;15.05;;;;;;;19.05;100.00;101371.19;5051007;28;20031;-72
2023/06/22 12:53:17;;;;;;;19.17;15.13;;;;;;;19.02;100.00;101370.88;5052373;28;20021;-70
2023/06/22 12:55:42;;;;;;;18.50;16.60;;;;;;;18.96;100.00;101367.28;5052077;28;20128;-72
2023/06/22 12:58:07;;;;;;;19.00;16.88;;;;;;;19.01;100.00;101367.31;5052240;28;20059;-73
2023/06/22 13:00:33;;;;;;;17.55;15.75;;;;;;;18.88;100.00;101354.91;5049733;28;20024;-73
2023/06/22 13:02:58;;;;;;;17.15;15.45;;;;;;;18.82;100.00;101352.41;5050952;28;20066;-72
2023/06/22 13:05:23;;;;;;;18.38;16.48;;;;;;;18.89;100.00;101342.03;5052104;28;20091;-74
2023/06/22 13:07:49;;;;;;;17.85;15.95;;;;;;;18.88;100.00;101343.94;5052239;28;20496;-73
2023/06/22 13:10:14;;;;;;;18.52;16.52;;;;;;;18.80;100.00;101347.19;5052665;28;20021;-74
2023/06/22 13:12:40;;;;;;;17.77;15.65;;;;;;;18.75;100.00;101347.16;5050783;28;20356;-75
2023/06/22 13:15:06;;;;;;;17.52;15.73;;;;;;;18.72;100.00;101347.69;5050979;28;20029;-77
2023/06/22 13:17:31;;;;;;;18.95;16.42;;;;;;;18.67;100.00;101345.75;5050942;28;20298;-75
2023/06/22 13:19:57;;;;;;;17.95;16.05;;;;;;;18.67;100.00;101350.41;5050898;28;20522;-75
2023/06/22 13:22:28;;;;;;;17.48;15.57;;;;;;;18.56;100.00;101333.09;5050970;28;20043;-72
2023/06/22 13:24:54;;;;;;;16.67;14.88;;;;;;;18.62;100.00;101325.75;5050752;28;20119;-73
2023/06/22 13:27:19;;;;;;;17.17;15.48;;;;;;;18.52;100.00;101326.50;5052064;28;20080;-73
2023/06/22 13:29:45;;;;;;;17.15;15.35;;;;;;;18.47;100.00;101316.34;5050649;28;20301;-75
2023/06/22 13:32:10;;;;;;;17.13;14.52;;;;;;;18.43;100.00;101307.00;5050606;28;20021;-73
2023/06/22 13:34:35;;;;;;;15.80;14.18;;;;;;;18.41;100.00;101298.22;5050399;28;20017;-75
2023/06/22 13:37:01;;;;;;;15.80;14.30;;;;;;;18.36;100.00;101298.22;5050795;28;20617;-74
2023/06/22 13:39:26;;;;;;;16.98;15.05;;;;;;;18.34;100.00;101293.00;5051864;28;20031;-72
2023/06/22 13:41:51;;;;;;;16.60;14.80;;;;;;;18.40;100.00;101288.34;5050534;28;20444;-73
2023/06/22 13:44:17;;;;;;;17.70;14.27;;;;;;;18.35;100.00;101291.06;5054578;28;20112;-76
2023/06/22 13:46:42;;;;;;;15.93;14.23;;;;;;;18.39;100.00;101290.28;5054344;28;20348;-76
2023/06/22 13:49:08;;;;;;;18.20;14.68;;;;;;;18.38;100.00;101283.13;5054189;28;20032;-75
2023/06/22 13:51:33;;;;;;;15.50;14.00;;;;;;;18.43;100.00;101293.28;5055471;28;20474;-77
2023/06/22 13:53:58;;;;;;;14.98;13.50;;;;;;;18.48;100.00;101287.84;5054202;28;20021;-74
2023/06/22 13:56:24;;;;;;;13.60;12.20;;;;;;;18.47;100.00;101286.19;5053994;28;20044;-77
2023/06/22 13:58:49;;;;;;;13.65;12.23;;;;;;;18.48;100.00;101287.00;5054050;28;20055;-74
2023/06/22 14:01:14;;;;;;;13.13;11.75;;;;;;;18.51;100.00;101291.97;5053082;28;20052;-75
2023/06/22 14:03:40;;;;;;;14.45;12.23;;;;;;;18.46;100.00;101281.78;5055010;28;20103;-74
2023/06/22 14:06:06;;;;;;;13.60;12.20;;;;;;;18.41;100.00;101287.28;5054199;28;20452;-75
2023/06/22 14:08:31;;;;;;;12.52;11.32;;;;;;;18.41;100.00;101273.56;5055563;28;20028;-73
2023/06/22 14:10:57;;;;;;;13.07;11.77;;;;;;;18.41;100.00;101270.81;5053864;28;20024;-73
2023/06/22 14:13:22;;;;;;;13.80;11.88;;;;;;;18.41;100.00;101277.13;5055075;28;20017;-73
2023/06/22 14:15:48;;;;;;;13.48;12.15;;;;;;;18.39;100.00;101276.56;5053192;28;20024;-72
2023/06/22 14:18:14;;;;;;;14.32;12.15;;;;;;;18.32;100.00;101277.91;5055304;28;20103;-75
2023/06/22 14:20:39;;;;;;;12.95;11.75;;;;;;;18.42;100.00;101284.25;5054820;28;20059;-76
2023/06/22 14:23:05;;;;;;;13.27;11.90;;;;;;;18.42;100.00;101278.78;5053962;28;20104;-73
2023/06/22 14:25:30;;;;;;;14.68;13.18;;;;;;;18.45;100.00;101266.47;5053632;28;20112;-74
2023/06/22 14:27:56;;;;;;;14.40;12.93;;;;;;;18.38;100.00;101274.09;5053513;28;20021;-73
2023/06/22 14:30:21;;;;;;;15.77;12.50;;;;;;;18.35;100.00;101267.22;5054860;28;20474;-74
2023/06/22 14:32:47;;;;;;;14.07;12.77;;;;;;;18.30;100.00;101272.69;5054591;28;20582;-72
2023/06/22 14:35:12;;;;;;;14.60;12.85;;;;;;;18.31;100.00;101266.09;5054608;28;20411;-77
2023/06/22 14:37:38;;;;;;;14.48;12.90;;;;;;;18.23;100.00;101270.19;5054422;28;20021;-73
2023/06/22 14:40:03;;;;;;;14.88;13.38;;;;;;;18.22;100.00;101274.03;5054611;28;20025;-75
2023/06/22 14:42:30;;;;;;;16.73;14.27;;;;;;;18.19;100.00;101260.88;5054450;28;20123;-74
2023/06/22 14:44:55;;;;;;;16.35;14.63;;;;;;;18.18;100.00;101250.19;5053294;28;20390;-71
2023/06/22 14:47:21;;;;;;;16.83;14.52;;;;;;;18.21;100.00;101241.44;5053439;28;20029;-73
2023/06/22 14:49:48;;;;;;;16.92;15.05;;;;;;;18.13;100.00;101239.19;5052747;28;20029;-71
2023/06/22 14:52:14;;;;;;;19.20;16.52;;;;;;;18.13;100.00;101230.97;5054037;28;20078;-71
2023/06/22 14:54:39;;;;;;;16.85;15.10;;;;;;;18.17;100.00;101243.88;5054069;28;20017;-71
2023/06/22 14:57:05;;;;;;;16.75;14.98;;;;;;;18.10;100.00;101242.47;5052160;28;20040;-70
2023/06/22 14:59:36;;;;;;;17.40;15.60;;;;;;;18.16;100.00;101242.22;5052381;28;20021;-75
2023/06/22 15:02:02;;;;;;;18.65;16.65;;;;;;;18.16;100.00;101244.13;5049340;28;20020;-73
2023/06/22 15:04:31;;;;;;;17.55;15.70;;;;;;;18.15;100.00;101257.00;5053889;28;20031;-75
2023/06/22 15:06:57;;;;;;;17.40;15.63;;;;;;;18.21;100.00;101255.13;5054170;28;20009;-75
2023/06/22 15:09:22;;;;;;;18.20;16.30;;;;;;;18.22;100.00;101241.16;5052787;28;20123;-75
2023/06/22 15:11:48;;;;;;;18.20;16.30;;;;;;;18.26;100.00;101240.63;5053547;28;20460;-75
2023/06/22 15:14:14;;;;;;;18.30;16.30;;;;;;;18.24;100.00;101249.13;5052824;28;20426;-71
2023/06/22 15:16:39;;;;;;;18.27;16.48;;;;;;;18.30;100.00;101247.19;5051856;28;20116;-77
2023/06/22 15:19:06;;;;;;;17.40;15.57;;;;;;;18.26;100.00;101244.19;5053201;28;20297;-72
2023/06/22 15:21:33;;;;;;;17.90;15.98;;;;;;;18.31;100.00;101248.84;5053742;28;20017;-72
2023/06/22 15:23:58;;;;;;;20.23;16.63;;;;;;;18.30;100.00;101252.69;5053280;28;20436;-73
2023/06/22 15:26:32;;;;;;;19.48;17.58;;;;;;;18.23;100.00;101263.91;5052431;28;20040;-74
2023/06/22 15:29:01;;;;;;;18.35;16.45;;;;;;;18.28;100.00;101260.34;5053346;28;20514;-72
2023/06/22 15:31:30;;;;;;;19.13;17.13;;;;;;;18.29;100.00;101256.53;5053589;28;20021;-71
2023/06/22 15:33:58;;;;;;;18.38;16.48;;;;;;;18.32;100.00;101269.69;5053518;28;20042;-72
2023/06/22 15:36:28;;;;;;;18.65;16.73;;;;;;;18.32;100.00;101258.75;5052329;28;20021;-75
2023/06/22 15:38:59;;;;;;;19.17;17.15;;;;;;;18.31;100.00;101252.41;5053077;28;20079;-72
2023/06/22 15:41:29;;;;;;;20.15;17.67;;;;;;;18.34;100.00;101253.81;5053368;28;20126;-71
2023/06/22 15:43:57;;;;;;;21.63;19.42;;;;;;;18.29;100.00;101251.06;5053100;28;20487;-72
2023/06/22 15:46:22;;;;;;;22.52;20.13;;;;;;;18.30;100.00;101237.09;5053626;28;20021;-73
2023/06/22 15:48:48;;;;;;;21.42;19.17;;;;;;;18.35;100.00;101241.75;5052913;28;20076;-73
2023/06/22 15:51:13;;;;;;;23.48;21.00;;;;;;;18.31;100.00;101246.13;5053152;28;20048;-72
2023/06/22 15:53:40;;;;;;;22.98;20.52;;;;;;;18.29;100.00;101243.66;5052906;28;20078;-71
2023/06/22 15:56:09;;;;;;;24.52;21.92;;;;;;;18.32;100.00;101243.13;5051291;28;20051;-72
2023/06/22 15:58:39;;;;;;;25.38;22.67;;;;;;;18.32;100.00;101234.09;5052905;28;20029;-71
2023/06/22 16:01:05;;;;;;;25.20;22.52;;;;;;;18.31;100.00;101240.63;5050575;28;20075;-71
2023/06/22 16:03:31;;;;;;;25.58;23.05;;;;;;;18.31;100.00;101235.97;5051871;28;20017;-73
2023/06/22 16:05:56;;;;;;;26.73;23.92;;;;;;;18.32;100.00;101234.09;5052454;28;20444;-76
